Time;durP1;ratioP1;P1;durP2;ratioP2;P2;SDS_P1;SDS_P2;PMS_P1;PMS_P2;Temp;Humidity;BMP_temperature;BMP_pressure;BME280_temperature;BME280_humidity;BME280_pressure;Samples;Min_cycle;Max_cycle;Signal;HPM_P1;HPM_P2
2023/05/20 00:00:06;;;;;;;;;;;15.10;99.90;15.40;99420.00;;;;338566;28;94687;-94
2023/05/20 00:00:18;;;;;;;;;;;15.10;99.90;15.40;99425.00;;;;339603;28;82613;-94
2023/05/20 00:00:47;;;;;;;;;;;15.10;99.90;15.50;99413.00;;;;337303;28;95044;-93
2023/05/20 00:00:59;;;;;;;;;;;15.10;99.90;15.40;99420.00;;;;337860;28;82569;-94
2023/05/20 00:01:11;;;;;;;;;;;15.10;99.90;15.50;99417.00;;;;335853;28;95307;-94
2023/05/20 00:01:23;;;;;;;;;;;15.10;99.90;15.50;99410.00;;;;336685;28;82457;-94
2023/05/20 00:01:35;;;;;;;;;;;15.10;99.90;15.40;99417.00;;;;337708;28;92166;-94
2023/05/20 00:01:47;;;;;;;;;;;15.10;99.90;15.50;99422.00;;;;339355;28;82548;-94
2023/05/20 00:01:59;;;;;;;;;;;15.10;99.90;15.50;99421.00;;;;336111;28;92426;-94
2023/05/20 00:02:11;;;;;;;;;;;15.10;99.90;15.40;99417.00;;;;339290;28;83504;-94
2023/05/20 00:02:23;;;;;;;;;;;15.10;99.90;15.30;99414.00;;;;338635;28;92982;-93
2023/05/20 00:02:35;;;;;;;;;;;15.10;99.90;15.30;99419.00;;;;337982;28;82560;-95
2023/05/20 00:02:47;;;;;;;;;;;15.10;99.90;15.40;99408.00;;;;337538;28;93410;-95
2023/05/20 00:02:59;;;;;;;;;;;15.10;99.90;15.40;99415.00;;;;339584;28;82516;-94
2023/05/20 00:03:11;;;;;;;;;;;15.10;99.90;15.40;99414.00;;;;337472;28;94008;-93
2023/05/20 00:03:24;;;;;;;;;;;15.10;99.90;15.30;99418.00;;;;339075;28;82642;-94
2023/05/20 00:03:36;;;;;;;;;;;15.10;99.90;15.30;99418.00;;;;338935;28;92640;-95
2023/05/20 00:03:48;;;;;;;;;;;15.10;99.90;15.30;99419.00;;;;338170;28;82609;-94
2023/05/20 00:04:00;;;;;;;;;;;15.10;99.90;15.40;99423.00;;;;337234;28;95556;-94
2023/05/20 00:04:12;;;;;;;;;;;15.10;99.90;15.40;99419.00;;;;336888;28;82588;-94
2023/05/20 00:04:24;;;;;;;;;;;15.10;99.90;15.40;99411.00;;;;337564;28;95377;-94
2023/05/20 00:04:36;;;;;;;;;;;15.10;99.90;15.40;99417.00;;;;338203;28;82611;-94
2023/05/20 00:04:48;;;;;;;;;;;15.10;99.90;15.50;99416.00;;;;337581;28;95957;-94
2023/05/20 00:05:00;;;;;;;;;;;15.10;99.90;15.40;99417.00;;;;338235;28;82564;-94
2023/05/20 00:05:13;;;;;;;;;;;15.10;99.90;15.40;99419.00;;;;338779;28;97010;-94
2023/05/20 00:05:25;;;;;;;;;;;15.10;99.90;15.40;99418.00;;;;338130;28;82556;-94
2023/05/20 00:05:37;;;;;;;;;;;15.10;99.90;15.50;99419.00;;;;337402;28;95093;-95
2023/05/20 00:05:49;;;;;;;;;;;15.10;99.90;15.30;99407.00;;;;338082;28;83668;-94
2023/05/20 00:06:00;;;;;;;;;;;15.10;99.90;15.20;99418.00;;;;340097;28;94101;-94
2023/05/20 00:06:12;;;;;;;;;;;15.10;99.90;15.10;99407.00;;;;339366;28;82582;-94
2023/05/20 00:06:24;;;;;;;;;;;15.10;99.90;15.10;99412.00;;;;338488;28;95842;-94
2023/05/20 00:06:36;;;;;;;;;;;15.10;99.90;15.20;99413.00;;;;339616;28;83336;-94
2023/05/20 00:06:48;;;;;;;;;;;15.00;99.90;15.10;99419.00;;;;337349;28;97130;-94
2023/05/20 00:07:00;;;;;;;;;;;15.00;99.90;15.10;99418.00;;;;339464;28;82634;-94
2023/05/20 00:07:11;;;;;;;;;;;15.00;99.90;15.10;99416.00;;;;339141;28;93799;-94
2023/05/20 00:07:23;;;;;;;;;;;15.00;99.90;15.20;99411.00;;;;338219;28;82576;-94
2023/05/20 00:07:35;;;;;;;;;;;15.00;99.90;15.30;99417.00;;;;338861;28;95603;-94
2023/05/20 00:07:47;;;;;;;;;;;15.00;99.90;15.30;99414.00;;;;339418;28;82554;-93
2023/05/20 00:07:59;;;;;;;;;;;15.00;99.90;15.20;99410.00;;;;335678;28;92238;-94
2023/05/20 00:08:11;;;;;;;;;;;15.00;99.90;15.20;99417.00;;;;339386;28;82463;-93
2023/05/20 00:08:23;;;;;;;;;;;15.00;99.90;15.30;99420.00;;;;338892;28;93445;-94
2023/05/20 00:08:34;;;;;;;;;;;15.00;99.90;15.20;99425.00;;;;336840;28;82547;-94
2023/05/20 00:08:46;;;;;;;;;;;15.00;99.90;15.30;99418.00;;;;338608;28;95690;-94
2023/05/20 00:08:58;;;;;;;;;;;15.00;99.90;15.30;99416.00;;;;340801;28;83506;-95
2023/05/20 00:09:11;;;;;;;;;;;15.00;99.90;15.20;99415.00;;;;337198;28;95944;-94
2023/05/20 00:09:23;;;;;;;;;;;15.00;99.90;15.30;99421.00;;;;339624;28;83326;-93
2023/05/20 00:09:37;;;;;;;;;;;15.00;99.90;15.20;99420.00;;;;338505;28;95629;-94
2023/05/20 00:09:50;;;;;;;;;;;15.00;99.90;15.20;99418.00;;;;339527;28;83521;-94
2023/05/20 00:10:02;;;;;;;;;;;15.00;99.90;15.20;99421.00;;;;337513;28;93417;-94
2023/05/20 00:10:14;;;;;;;;;;;15.00;99.90;15.20;99423.00;;;;337746;28;83488;-95
2023/05/20 00:10:26;;;;;;;;;;;15.00;99.90;15.10;99403.00;;;;339007;28;93348;-94
2023/05/20 00:10:38;;;;;;;;;;;15.00;99.90;15.20;99409.00;;;;335779;29;82432;-94
2023/05/20 00:10:50;;;;;;;;;;;15.00;99.90;15.30;99411.00;;;;336360;28;94685;-93
2023/05/20 00:11:02;;;;;;;;;;;14.90;99.90;15.30;99420.00;;;;338352;28;83286;-93
2023/05/20 00:11:14;;;;;;;;;;;15.00;99.90;15.30;99416.00;;;;338517;28;96328;-95
2023/05/20 00:11:26;;;;;;;;;;;15.00;99.90;15.30;99417.00;;;;338168;28;83910;-94
2023/05/20 00:11:38;;;;;;;;;;;15.00;99.90;15.20;99420.00;;;;340236;28;94118;-93
2023/05/20 00:11:50;;;;;;;;;;;15.00;99.90;15.20;99417.00;;;;339368;28;83530;-93
2023/05/20 00:12:02;;;;;;;;;;;15.00;99.90;15.20;99419.00;;;;337543;28;92939;-94
2023/05/20 00:12:14;;;;;;;;;;;15.00;99.90;15.30;99412.00;;;;339477;28;83630;-93
2023/05/20 00:12:26;;;;;;;;;;;15.00;99.90;15.30;99423.00;;;;339913;28;94330;-94
2023/05/20 00:12:38;;;;;;;;;;;15.00;99.90;15.30;99418.00;;;;339464;28;83543;-94
2023/05/20 00:12:50;;;;;;;;;;;15.00;99.90;15.30;99414.00;;;;337508;28;93406;-94
2023/05/20 00:13:02;;;;;;;;;;;15.00;99.90;15.20;99420.00;;;;336796;28;83521;-94
2023/05/20 00:13:14;;;;;;;;;;;15.00;99.90;15.20;99410.00;;;;335573;28;93081;-94
2023/05/20 00:13:26;;;;;;;;;;;15.00;99.90;15.20;99416.00;;;;339347;28;82520;-94
2023/05/20 00:13:38;;;;;;;;;;;15.00;99.90;15.20;99422.00;;;;336345;28;94560;-94
2023/05/20 00:13:50;;;;;;;;;;;15.00;99.90;15.30;99414.00;;;;336975;28;82580;-94
2023/05/20 00:14:02;;;;;;;;;;;15.00;99.90;15.20;99425.00;;;;337868;28;93096;-96
2023/05/20 00:14:15;;;;;;;;;;;15.00;99.90;15.20;99418.00;;;;339542;28;82393;-95
2023/05/20 00:14:27;;;;;;;;;;;15.00;99.90;15.20;99420.00;;;;338841;28;93404;-95
2023/05/20 00:14:39;;;;;;;;;;;15.00;99.90;15.20;99414.00;;;;336929;28;83492;-94
2023/05/20 00:14:51;;;;;;;;;;;15.00;99.90;15.10;99415.00;;;;335880;28;94359;-94
2023/05/20 00:15:07;;;;;;;;;;;15.00;99.90;15.20;99419.00;;;;336750;28;82502;-92
2023/05/20 00:15:18;;;;;;;;;;;14.90;99.90;15.20;99419.00;;;;340027;28;95746;-94
2023/05/20 00:15:30;;;;;;;;;;;15.00;99.90;15.20;99422.00;;;;340025;28;82578;-94
2023/05/20 00:15:44;;;;;;;;;;;15.00;99.90;15.20;99420.00;;;;339111;28;95797;-93
2023/05/20 00:15:56;;;;;;;;;;;15.00;99.90;15.20;99414.00;;;;338840;28;82590;-94
2023/05/20 00:16:08;;;;;;;;;;;15.00;99.90;15.20;99416.00;;;;336782;28;93097;-94
2023/05/20 00:16:20;;;;;;;;;;;15.00;99.90;15.20;99420.00;;;;338310;28;82528;-94
2023/05/20 00:16:32;;;;;;;;;;;15.00;99.90;15.20;99416.00;;;;339643;28;92946;-93
2023/05/20 00:16:44;;;;;;;;;;;15.00;99.90;15.30;99411.00;;;;339329;28;82633;-93
2023/05/20 00:16:56;;;;;;;;;;;15.00;99.90;15.20;99421.00;;;;337524;28;96084;-91
2023/05/20 00:17:08;;;;;;;;;;;14.90;99.90;15.10;99417.00;;;;338408;28;82508;-91
2023/05/20 00:17:20;;;;;;;;;;;15.00;99.90;15.20;99414.00;;;;339156;28;95563;-93
2023/05/20 00:17:31;;;;;;;;;;;15.00;99.90;15.20;99413.00;;;;338413;28;82421;-92
2023/05/20 00:17:43;;;;;;;;;;;15.00;99.90;15.20;99413.00;;;;339026;28;92954;-90
2023/05/20 00:17:56;;;;;;;;;;;15.00;99.90;15.30;99411.00;;;;341158;28;82609;-90
2023/05/20 00:18:08;;;;;;;;;;;15.00;99.90;15.30;99412.00;;;;339312;28;93401;-88
2023/05/20 00:18:20;;;;;;;;;;;14.90;99.90;15.20;99416.00;;;;340210;28;82401;-92
2023/05/20 00:18:32;;;;;;;;;;;14.90;99.90;15.20;99406.00;;;;341454;28;94586;-91
2023/05/20 00:18:44;;;;;;;;;;;14.90;99.90;15.20;99416.00;;;;339718;28;82321;-92
2023/05/20 00:18:56;;;;;;;;;;;15.00;99.90;15.20;99422.00;;;;338721;28;92199;-91
2023/05/20 00:19:08;;;;;;;;;;;15.00;99.90;15.20;99415.00;;;;340119;28;82611;-92
2023/05/20 00:19:20;;;;;;;;;;;15.00;99.90;15.20;99418.00;;;;339197;28;94110;-91
2023/05/20 00:19:32;;;;;;;;;;;15.00;99.90;15.20;99419.00;;;;341096;28;82415;-91
2023/05/20 00:19:44;;;;;;;;;;;15.00;99.90;15.20;99419.00;;;;341544;28;95280;-90
2023/05/20 00:19:55;;;;;;;;;;;15.00;99.90;15.20;99409.00;;;;339703;28;82488;-91
2023/05/20 00:20:08;;;;;;;;;;;15.00;99.90;15.20;99413.00;;;;337883;28;92822;-93
2023/05/20 00:20:20;;;;;;;;;;;14.90;99.90;15.20;99412.00;;;;341104;28;82601;-93
2023/05/20 00:20:31;;;;;;;;;;;15.00;99.90;15.20;99411.00;;;;341960;28;93047;-92
2023/05/20 00:20:43;;;;;;;;;;;14.90;99.90;15.20;99405.00;;;;342403;28;82323;-93
2023/05/20 00:20:55;;;;;;;;;;;14.90;99.90;15.10;99409.00;;;;338888;28;95304;-91
2023/05/20 00:21:08;;;;;;;;;;;15.00;99.90;15.10;99405.00;;;;342477;28;82425;-93
2023/05/20 00:21:20;;;;;;;;;;;15.00;99.90;15.10;99411.00;;;;338706;28;96143;-94
2023/05/20 00:21:32;;;;;;;;;;;14.90;99.90;15.20;99405.00;;;;341460;28;82492;-92
2023/05/20 00:21:44;;;;;;;;;;;15.00;99.90;15.20;99413.00;;;;341679;28;93561;-93
2023/05/20 00:21:57;;;;;;;;;;;15.00;99.90;15.20;99413.00;;;;340944;28;82487;-94
2023/05/20 00:22:09;;;;;;;;;;;14.90;99.90;15.20;99420.00;;;;339768;28;93019;-94
2023/05/20 00:22:21;;;;;;;;;;;14.90;99.90;15.20;99418.00;;;;336738;29;82478;-93
2023/05/20 00:22:32;;;;;;;;;;;15.00;99.90;15.20;99417.00;;;;339588;28;94659;-94
2023/05/20 00:22:44;;;;;;;;;;;14.90;99.90;15.20;99410.00;;;;339665;28;83170;-93
2023/05/20 00:22:56;;;;;;;;;;;14.90;99.90;15.10;99411.00;;;;338848;28;95684;-94
2023/05/20 00:23:08;;;;;;;;;;;14.90;99.90;15.20;99412.00;;;;339505;28;82571;-94
2023/05/20 00:23:20;;;;;;;;;;;14.90;99.90;15.20;99413.00;;;;338812;28;97158;-94
2023/05/20 00:23:32;;;;;;;;;;;14.90;99.90;15.20;99416.00;;;;339284;28;82673;-94
2023/05/20 00:23:43;;;;;;;;;;;14.90;99.90;15.20;99420.00;;;;339890;28;92186;-94
2023/05/20 00:23:56;;;;;;;;;;;14.90;99.90;15.20;99418.00;;;;339405;28;82639;-93
2023/05/20 00:24:08;;;;;;;;;;;14.90;99.90;15.20;99412.00;;;;338970;28;93308;-94
2023/05/20 00:24:20;;;;;;;;;;;14.90;99.90;15.20;99415.00;;;;340743;28;83457;-92
2023/05/20 00:24:32;;;;;;;;;;;15.00;99.90;15.20;99421.00;;;;339953;28;95679;-94
2023/05/20 00:24:44;;;;;;;;;;;15.00;99.90;15.20;99414.00;;;;338167;28;83476;-95
2023/05/20 00:24:57;;;;;;;;;;;14.90;99.90;15.20;99415.00;;;;338757;28;94545;-94
2023/05/20 00:25:09;;;;;;;;;;;14.90;99.90;15.10;99422.00;;;;339653;28;83512;-94
2023/05/20 00:25:21;;;;;;;;;;;14.90;99.90;15.10;99410.00;;;;338835;28;98018;-94
2023/05/20 00:25:32;;;;;;;;;;;14.90;99.90;15.20;99420.00;;;;339375;28;82528;-95
2023/05/20 00:25:45;;;;;;;;;;;14.90;99.90;15.10;99412.00;;;;338777;28;93461;-93
2023/05/20 00:25:57;;;;;;;;;;;14.90;99.90;15.10;99416.00;;;;336795;28;83568;-95
2023/05/20 00:26:11;;;;;;;;;;;14.90;99.90;15.10;99411.00;;;;338985;28;96802;-94
2023/05/20 00:26:23;;;;;;;;;;;14.90;99.90;15.10;99412.00;;;;340799;28;82495;-94
2023/05/20 00:26:35;;;;;;;;;;;14.90;99.90;15.10;99408.00;;;;337455;28;93886;-94
2023/05/20 00:26:47;;;;;;;;;;;14.80;99.90;15.10;99410.00;;;;339641;28;82405;-95
2023/05/20 00:26:59;;;;;;;;;;;14.90;99.90;15.20;99420.00;;;;338729;28;95021;-95
2023/05/20 00:27:11;;;;;;;;;;;14.90;99.90;15.10;99414.00;;;;339747;28;82280;-94
2023/05/20 00:27:23;;;;;;;;;;;14.90;99.90;15.10;99411.00;;;;337458;28;96676;-94
2023/05/20 00:27:35;;;;;;;;;;;14.90;99.90;15.10;99415.00;;;;339511;28;82636;-94
2023/05/20 00:27:47;;;;;;;;;;;14.90;99.90;15.10;99415.00;;;;336104;28;92430;-94
2023/05/20 00:27:58;;;;;;;;;;;14.90;99.90;15.20;99406.00;;;;338382;28;82525;-94
2023/05/20 00:28:10;;;;;;;;;;;14.80;99.90;15.20;99417.00;;;;339940;28;94382;-94
2023/05/20 00:28:22;;;;;;;;;;;14.90;99.90;15.20;99402.00;;;;341772;28;82559;-94
2023/05/20 00:28:34;;;;;;;;;;;14.80;99.90;15.10;99410.00;;;;338477;28;94771;-93
2023/05/20 00:28:46;;;;;;;;;;;14.90;99.90;15.10;99407.00;;;;339546;28;83344;-94
2023/05/20 00:28:58;;;;;;;;;;;14.90;99.90;15.00;99408.00;;;;337027;28;97002;-94
2023/05/20 00:29:10;;;;;;;;;;;14.80;99.90;15.00;99411.00;;;;336743;28;82420;-94
2023/05/20 00:29:22;;;;;;;;;;;14.80;99.90;15.00;99411.00;;;;337562;28;95385;-94
2023/05/20 00:29:34;;;;;;;;;;;14.80;99.90;15.10;99408.00;;;;336815;28;82355;-93
2023/05/20 00:29:46;;;;;;;;;;;14.80;99.90;15.10;99413.00;;;;337458;28;93075;-94
2023/05/20 00:29:58;;;;;;;;;;;14.80;99.90;15.10;99405.00;;;;338217;28;82460;-94
2023/05/20 00:30:11;;;;;;;;;;;14.80;99.90;15.20;99407.00;;;;338853;28;95220;-94
2023/05/20 00:30:23;;;;;;;;;;;14.80;99.90;15.20;99420.00;;;;337971;28;83532;-93
2023/05/20 00:30:35;;;;;;;;;;;14.90;99.90;15.20;99408.00;;;;337317;28;95245;-93
2023/05/20 00:30:46;;;;;;;;;;;14.90;99.90;15.20;99405.00;;;;338157;28;83440;-94
2023/05/20 00:30:58;;;;;;;;;;;14.90;99.90;15.10;99413.00;;;;334718;29;94666;-94
2023/05/20 00:31:10;;;;;;;;;;;14.90;99.90;15.10;99415.00;;;;337087;28;83442;-95
2023/05/20 00:31:22;;;;;;;;;;;14.90;99.90;15.00;99413.00;;;;337289;28;96435;-93
2023/05/20 00:31:35;;;;;;;;;;;14.90;99.90;15.10;99411.00;;;;339574;28;82574;-94
2023/05/20 00:31:47;;;;;;;;;;;14.80;99.90;15.10;99407.00;;;;335540;28;92202;-94
2023/05/20 00:31:59;;;;;;;;;;;14.90;99.90;15.20;99409.00;;;;336854;28;83939;-94
2023/05/20 00:32:11;;;;;;;;;;;14.90;99.90;15.10;99407.00;;;;337699;28;92985;-95
2023/05/20 00:32:24;;;;;;;;;;;14.90;99.90;15.10;99412.00;;;;340820;28;82503;-94
2023/05/20 00:32:36;;;;;;;;;;;14.90;99.90;15.00;99414.00;;;;337362;28;96694;-94
2023/05/20 00:32:48;;;;;;;;;;;14.80;99.90;15.00;99407.00;;;;339635;28;83437;-94
2023/05/20 00:33:00;;;;;;;;;;;14.80;99.90;15.00;99400.00;;;;338625;28;95236;-94
2023/05/20 00:33:12;;;;;;;;;;;14.80;99.90;15.00;99406.00;;;;338152;28;82611;-95
2023/05/20 00:33:24;;;;;;;;;;;14.80;99.90;15.00;99412.00;;;;337673;28;94204;-94
2023/05/20 00:33:36;;;;;;;;;;;14.80;99.90;15.00;99414.00;;;;336811;28;82495;-95
2023/05/20 00:33:48;;;;;;;;;;;14.80;99.90;15.00;99409.00;;;;338687;28;94475;-93
2023/05/20 00:34:00;;;;;;;;;;;14.80;99.90;15.10;99403.00;;;;337990;28;82616;-94
2023/05/20 00:34:12;;;;;;;;;;;14.80;99.90;15.10;99407.00;;;;338976;28;93394;-96
2023/05/20 00:34:23;;;;;;;;;;;14.80;99.90;15.10;99401.00;;;;339664;28;83176;-94
2023/05/20 00:34:35;;;;;;;;;;;14.80;99.90;15.20;99417.00;;;;338855;28;93423;-93
2023/05/20 00:34:57;;;;;;;;;;;14.80;99.90;15.10;99403.00;;;;336934;28;83461;-94
2023/05/20 00:35:10;;;;;;;;;;;14.80;99.90;15.10;99411.00;;;;337056;28;94770;-94
2023/05/20 00:35:22;;;;;;;;;;;14.80;99.90;15.10;99407.00;;;;336799;28;82551;-95
2023/05/20 00:35:34;;;;;;;;;;;14.80;99.90;15.10;99397.00;;;;338607;28;96583;-94
2023/05/20 00:35:46;;;;;;;;;;;14.80;99.90;15.00;99400.00;;;;339326;28;84536;-94
2023/05/20 00:35:58;;;;;;;;;;;14.80;99.90;14.90;99417.00;;;;337430;28;94477;-93
2023/05/20 00:36:10;;;;;;;;;;;14.80;99.90;15.00;99400.00;;;;336912;28;82452;-94
2023/05/20 00:36:22;;;;;;;;;;;14.80;99.90;15.10;99404.00;;;;338222;28;93517;-94
2023/05/20 00:36:34;;;;;;;;;;;14.80;99.90;15.10;99405.00;;;;338118;28;82641;-94
2023/05/20 00:36:46;;;;;;;;;;;14.80;99.90;15.10;99404.00;;;;338660;28;93447;-95
2023/05/20 00:36:58;;;;;;;;;;;14.80;99.90;15.10;99400.00;;;;338034;28;83347;-94
2023/05/20 00:37:10;;;;;;;;;;;14.80;99.90;15.20;99406.00;;;;338419;28;95811;-94
2023/05/20 00:37:22;;;;;;;;;;;14.80;99.90;15.20;99408.00;;;;338098;28;82544;-94
2023/05/20 00:37:33;;;;;;;;;;;14.80;99.90;15.20;99413.00;;;;340067;28;93175;-94
2023/05/20 00:37:45;;;;;;;;;;;14.80;99.90;15.20;99405.00;;;;339248;28;83569;-93
2023/05/20 00:37:57;;;;;;;;;;;14.80;99.90;15.10;99402.00;;;;337616;28;92244;-94
2023/05/20 00:38:09;;;;;;;;;;;14.80;99.90;15.10;99398.00;;;;339788;28;82420;-95
2023/05/20 00:38:21;;;;;;;;;;;14.80;99.90;15.20;99407.00;;;;338848;28;95068;-93
2023/05/20 00:38:33;;;;;;;;;;;14.80;99.90;15.20;99397.00;;;;339875;28;82381;-94
2023/05/20 00:38:45;;;;;;;;;;;14.80;99.90;15.10;99404.00;;;;337633;28;93119;-93
2023/05/20 00:38:57;;;;;;;;;;;14.80;99.90;15.20;99399.00;;;;339459;28;82470;-95
2023/05/20 00:39:09;;;;;;;;;;;14.80;99.90;15.10;99402.00;;;;338605;28;95411;-94
2023/05/20 00:39:21;;;;;;;;;;;14.80;99.90;15.20;99411.00;;;;339767;28;82372;-94
2023/05/20 00:39:33;;;;;;;;;;;14.80;99.90;15.20;99412.00;;;;337578;28;95192;-94
2023/05/20 00:39:45;;;;;;;;;;;14.80;99.90;15.20;99403.00;;;;338266;28;82602;-95
2023/05/20 00:39:57;;;;;;;;;;;14.80;99.90;15.10;99398.00;;;;340031;28;95524;-94
2023/05/20 00:40:10;;;;;;;;;;;14.80;99.90;15.20;99405.00;;;;340960;28;82619;-94
2023/05/20 00:40:25;;;;;;;;;;;14.80;99.90;15.20;99406.00;;;;338727;28;95011;-94
2023/05/20 00:40:37;;;;;;;;;;;14.80;99.90;15.10;99403.00;;;;339138;28;82561;-94
2023/05/20 00:40:49;;;;;;;;;;;14.80;99.90;15.10;99396.00;;;;338970;28;93421;-93
2023/05/20 00:41:01;;;;;;;;;;;14.80;99.90;15.10;99403.00;;;;340003;28;82404;-91
2023/05/20 00:41:13;;;;;;;;;;;14.80;99.90;15.10;99402.00;;;;340097;28;94782;-92
2023/05/20 00:41:25;;;;;;;;;;;14.80;99.90;15.10;99404.00;;;;339909;28;82317;-89
2023/05/20 00:41:37;;;;;;;;;;;14.80;99.90;15.00;99400.00;;;;338094;28;93091;-92
2023/05/20 00:41:49;;;;;;;;;;;14.80;99.90;15.10;99401.00;;;;338052;28;82559;-94
2023/05/20 00:42:02;;;;;;;;;;;14.80;99.90;15.00;99403.00;;;;339132;28;93535;-93
2023/05/20 00:42:34;;;;;;;;;;;14.80;99.90;15.00;99400.00;;;;339700;28;83049;-93
2023/05/20 00:42:46;;;;;;;;;;;14.80;99.90;15.10;99397.00;;;;337722;28;92965;-94
2023/05/20 00:42:58;;;;;;;;;;;14.80;99.90;15.10;99404.00;;;;339588;28;82454;-94
2023/05/20 00:43:10;;;;;;;;;;;14.80;99.90;15.00;99406.00;;;;337407;28;92954;-93
2023/05/20 00:43:24;;;;;;;;;;;14.80;99.90;15.10;99394.00;;;;338201;28;82384;-94
2023/05/20 00:43:36;;;;;;;;;;;14.80;99.90;15.00;99403.00;;;;335849;29;92271;-93
2023/05/20 00:43:51;;;;;;;;;;;14.80;99.90;15.10;99395.00;;;;339169;28;82504;-93
2023/05/20 00:44:03;;;;;;;;;;;14.80;99.90;15.00;99402.00;;;;339610;28;96133;-93
2023/05/20 00:44:17;;;;;;;;;;;14.80;99.90;15.00;99401.00;;;;340680;28;83273;-94
2023/05/20 00:44:29;;;;;;;;;;;14.80;99.90;15.10;99397.00;;;;337972;28;92305;-94
2023/05/20 00:44:41;;;;;;;;;;;14.80;99.90;15.00;99393.00;;;;340297;28;82601;-94
2023/05/20 00:44:53;;;;;;;;;;;14.80;99.90;15.00;99394.00;;;;338288;28;92224;-94
2023/05/20 00:45:06;;;;;;;;;;;14.80;99.90;15.00;99400.00;;;;338030;28;84258;-94
2023/05/20 00:45:18;;;;;;;;;;;14.80;99.90;15.10;99398.00;;;;337368;28;91733;-94
2023/05/20 00:45:30;;;;;;;;;;;14.80;99.90;15.00;99403.00;;;;336758;28;83427;-94
2023/05/20 00:45:42;;;;;;;;;;;14.80;99.90;14.90;99388.00;;;;337359;28;93064;-95
2023/05/20 00:45:54;;;;;;;;;;;14.70;99.90;15.00;99399.00;;;;337884;28;82649;-93
2023/05/20 00:46:06;;;;;;;;;;;14.80;99.90;15.00;99385.00;;;;337282;28;94582;-93
2023/05/20 00:46:18;;;;;;;;;;;14.80;99.90;15.10;99393.00;;;;339334;28;82662;-94
2023/05/20 00:46:30;;;;;;;;;;;14.80;99.90;15.10;99391.00;;;;335977;28;95921;-95
2023/05/20 00:46:43;;;;;;;;;;;14.80;99.90;15.10;99395.00;;;;338039;28;83348;-93
2023/05/20 00:46:55;;;;;;;;;;;14.80;99.90;14.90;99402.00;;;;339844;28;91861;-94
2023/05/20 00:47:07;;;;;;;;;;;14.80;99.90;14.90;99392.00;;;;340772;28;82420;-94
2023/05/20 00:47:20;;;;;;;;;;;14.70;99.90;15.00;99400.00;;;;337222;28;95280;-95
2023/05/20 00:47:33;;;;;;;;;;;14.70;99.90;15.00;99388.00;;;;336870;28;83353;-94
2023/05/20 00:47:45;;;;;;;;;;;14.70;99.90;15.00;99392.00;;;;338418;28;93541;-94
2023/05/20 00:48:00;;;;;;;;;;;14.70;99.90;15.10;99387.00;;;;341880;28;83527;-94
2023/05/20 00:48:12;;;;;;;;;;;14.70;99.90;15.10;99398.00;;;;341308;28;94274;-94
2023/05/20 00:48:24;;;;;;;;;;;14.70;99.90;15.10;99396.00;;;;339373;28;83401;-93
2023/05/20 00:48:40;;;;;;;;;;;14.80;99.90;15.10;99390.00;;;;338501;28;95948;-94
2023/05/20 00:48:52;;;;;;;;;;;14.70;99.90;15.10;99395.00;;;;338188;28;82464;-93
2023/05/20 00:49:04;;;;;;;;;;;14.80;99.90;15.10;99395.00;;;;338468;28;93587;-93
2023/05/20 00:49:16;;;;;;;;;;;14.80;99.90;15.10;99392.00;;;;340530;28;83703;-94
2023/05/20 00:49:28;;;;;;;;;;;14.80;99.90;15.00;99395.00;;;;340120;28;93043;-93
2023/05/20 00:49:39;;;;;;;;;;;14.80;99.90;15.00;99396.00;;;;339301;28;82498;-95
2023/05/20 00:49:51;;;;;;;;;;;14.80;99.90;15.00;99394.00;;;;337179;28;94681;-94
2023/05/20 00:50:05;;;;;;;;;;;14.80;99.90;15.00;99397.00;;;;336688;28;82676;-94
2023/05/20 00:50:17;;;;;;;;;;;14.80;99.90;15.00;99389.00;;;;338368;28;94244;-94
2023/05/20 00:50:29;;;;;;;;;;;14.80;99.90;15.00;99393.00;;;;341788;28;82591;-94
2023/05/20 00:50:41;;;;;;;;;;;14.80;99.90;15.00;99390.00;;;;338522;28;95453;-94
2023/05/20 00:50:53;;;;;;;;;;;14.80;99.90;15.00;99384.00;;;;340843;28;82521;-94
2023/05/20 00:51:06;;;;;;;;;;;14.80;99.90;15.00;99391.00;;;;337253;28;93286;-94
2023/05/20 00:51:18;;;;;;;;;;;14.80;99.90;14.90;99395.00;;;;339184;28;82605;-93
2023/05/20 00:51:30;;;;;;;;;;;14.70;99.90;15.00;99386.00;;;;337475;28;91913;-94
2023/05/20 00:51:43;;;;;;;;;;;14.70;99.90;15.10;99380.00;;;;339247;28;82569;-95
2023/05/20 00:51:55;;;;;;;;;;;14.70;99.90;15.10;99389.00;;;;337061;28;94198;-94
2023/05/20 00:52:08;;;;;;;;;;;14.70;99.90;15.00;99395.00;;;;338048;28;82550;-94
2023/05/20 00:52:20;;;;;;;;;;;14.80;99.90;15.00;99384.00;;;;338279;28;94509;-94
2023/05/20 00:52:32;;;;;;;;;;;14.80;99.90;15.00;99394.00;;;;339303;28;82480;-95
2023/05/20 00:52:46;;;;;;;;;;;14.70;99.90;15.10;99384.00;;;;338865;28;93639;-94
2023/05/20 00:52:58;;;;;;;;;;;14.80;99.90;15.00;99398.00;;;;339115;28;82564;-94
2023/05/20 00:53:10;;;;;;;;;;;14.80;99.90;15.10;99394.00;;;;335894;28;95815;-93
2023/05/20 00:53:22;;;;;;;;;;;14.70;99.90;15.00;99398.00;;;;336876;28;82456;-94
2023/05/20 00:53:35;;;;;;;;;;;14.80;99.90;15.00;99389.00;;;;338531;28;93446;-94
2023/05/20 00:53:47;;;;;;;;;;;14.80;99.90;15.00;99388.00;;;;337923;28;82479;-94
2023/05/20 00:53:58;;;;;;;;;;;14.80;99.90;15.00;99393.00;;;;339913;28;94375;-94
2023/05/20 00:54:10;;;;;;;;;;;14.80;99.90;15.10;99395.00;;;;338150;28;82561;-94
2023/05/20 00:54:22;;;;;;;;;;;14.80;99.90;15.10;99391.00;;;;337139;28;95781;-94
2023/05/20 00:54:34;;;;;;;;;;;14.80;99.90;15.10;99390.00;;;;340516;28;83481;-95
2023/05/20 00:54:46;;;;;;;;;;;14.80;99.90;15.10;99382.00;;;;337091;28;94711;-94
2023/05/20 00:54:58;;;;;;;;;;;14.80;99.90;15.10;99380.00;;;;338187;28;82437;-94
2023/05/20 00:55:10;;;;;;;;;;;14.80;99.90;15.10;99395.00;;;;334888;29;93216;-95
2023/05/20 00:55:22;;;;;;;;;;;14.80;99.90;15.10;99388.00;;;;338235;28;82347;-94
2023/05/20 00:55:34;;;;;;;;;;;14.80;99.90;15.20;99387.00;;;;338694;28;93330;-94
2023/05/20 00:55:47;;;;;;;;;;;14.80;99.90;15.10;99388.00;;;;338130;28;82426;-95
2023/05/20 00:55:59;;;;;;;;;;;14.80;99.90;15.10;99391.00;;;;337290;28;94333;-95
2023/05/20 00:56:11;;;;;;;;;;;14.80;99.90;15.10;99393.00;;;;336793;28;83431;-94
2023/05/20 00:56:25;;;;;;;;;;;14.80;99.90;15.10;99392.00;;;;337064;28;95747;-93
2023/05/20 00:56:36;;;;;;;;;;;14.80;99.90;15.10;99392.00;;;;339183;28;82569;-94
2023/05/20 00:56:51;;;;;;;;;;;14.80;99.90;15.00;99395.00;;;;339998;28;94661;-94
2023/05/20 00:57:04;;;;;;;;;;;14.80;99.90;15.00;99392.00;;;;340600;28;82627;-93
2023/05/20 00:57:15;;;;;;;;;;;14.80;99.90;15.00;99391.00;;;;338526;28;96892;-94
2023/05/20 00:57:28;;;;;;;;;;;14.80;99.90;15.10;99387.00;;;;338256;28;82460;-94
2023/05/20 00:57:40;;;;;;;;;;;14.80;99.90;15.10;99402.00;;;;335990;28;94275;-95
2023/05/20 00:57:52;;;;;;;;;;;14.80;99.90;15.10;99391.00;;;;338018;28;82542;-94
2023/05/20 00:58:04;;;;;;;;;;;14.80;99.90;15.10;99389.00;;;;337312;28;94346;-94
2023/05/20 00:58:18;;;;;;;;;;;14.80;99.90;15.10;99378.00;;;;335681;29;82206;-94
2023/05/20 00:58:30;;;;;;;;;;;14.80;99.90;15.10;99386.00;;;;337318;28;92574;-94
2023/05/20 00:58:42;;;;;;;;;;;14.80;99.90;15.00;99381.00;;;;337937;28;82431;-95
2023/05/20 00:58:55;;;;;;;;;;;14.80;99.90;15.00;99385.00;;;;338578;28;94872;-94
2023/05/20 00:59:06;;;;;;;;;;;14.80;99.90;15.10;99383.00;;;;339261;28;82612;-94
2023/05/20 00:59:18;;;;;;;;;;;14.80;99.90;15.00;99386.00;;;;338561;28;95366;-94
2023/05/20 00:59:30;;;;;;;;;;;14.80;99.90;15.00;99392.00;;;;338217;28;82399;-93
2023/05/20 00:59:42;;;;;;;;;;;14.80;99.90;15.10;99396.00;;;;341092;28;92962;-95
2023/05/20 00:59:55;;;;;;;;;;;14.80;99.90;15.10;99393.00;;;;340708;28;83255;-93
2023/05/20 01:00:09;;;;;;;;;;;14.80;99.90;15.10;99393.00;;;;341249;28;95342;-94
2023/05/20 01:00:21;;;;;;;;;;;14.80;99.90;15.00;99387.00;;;;340877;28;82272;-93
2023/05/20 01:00:33;;;;;;;;;;;14.80;99.90;15.00;99389.00;;;;338764;28;93415;-95
2023/05/20 01:00:45;;;;;;;;;;;14.80;99.90;15.10;99391.00;;;;339563;28;82423;-94
2023/05/20 01:00:57;;;;;;;;;;;14.80;99.90;15.10;99380.00;;;;337467;28;91866;-94